createdAt,value
2023-03-22T00:02:04.521Z,3.03
2023-03-22T00:04:32.765Z,2.90
2023-03-22T00:06:59.922Z,2.85
2023-03-22T00:09:26.863Z,2.60
2023-03-22T00:11:53.821Z,2.90
2023-03-22T00:14:20.986Z,3.03
2023-03-22T00:16:49.313Z,3.30
2023-03-22T00:19:17.519Z,2.90
2023-03-22T00:21:44.831Z,2.90
2023-03-22T00:24:12.322Z,2.70
2023-03-22T00:26:39.308Z,2.40
2023-03-22T00:29:06.259Z,3.72
2023-03-22T00:31:33.246Z,3.10
2023-03-22T00:34:00.219Z,2.60
2023-03-22T00:36:27.241Z,2.78
2023-03-22T00:38:54.105Z,2.85
2023-03-22T00:41:23.149Z,2.60
2023-03-22T00:43:51.442Z,3.25
2023-03-22T00:46:21.055Z,2.75
2023-03-22T00:48:48.344Z,3.00
2023-03-22T00:51:16.336Z,3.03
2023-03-22T00:53:43.939Z,3.17
2023-03-22T00:56:15.825Z,2.90
2023-03-22T00:58:43.639Z,2.90
2023-03-22T01:01:14.208Z,2.50
2023-03-22T01:03:43.167Z,3.08
2023-03-22T01:06:11.292Z,2.70
2023-03-22T01:08:39.043Z,2.80
2023-03-22T01:11:07.413Z,2.72
2023-03-22T01:13:37.483Z,2.42
2023-03-22T01:16:06.098Z,2.80
2023-03-22T01:18:33.058Z,2.80
2023-03-22T01:21:00.726Z,2.42
2023-03-22T01:23:28.085Z,2.70
2023-03-22T01:25:55.010Z,2.50
2023-03-22T01:28:21.894Z,3.22
2023-03-22T01:30:49.095Z,2.65
2023-03-22T01:33:16.241Z,2.70
2023-03-22T01:35:43.195Z,2.80
2023-03-22T01:38:10.022Z,2.97
2023-03-22T01:40:37.054Z,2.40
2023-03-22T01:43:03.960Z,2.30
2023-03-22T01:45:35.825Z,2.70
2023-03-22T01:48:09.878Z,2.67
2023-03-22T01:50:39.296Z,2.72
2023-03-22T01:53:08.572Z,2.80
2023-03-22T01:55:35.950Z,2.60
2023-03-22T01:58:04.585Z,2.95
2023-03-22T02:00:32.740Z,2.70
2023-03-22T02:02:59.962Z,2.97
2023-03-22T02:05:28.166Z,3.20
2023-03-22T02:07:55.642Z,3.03
2023-03-22T02:10:25.639Z,3.00
2023-03-22T02:13:09.112Z,3.67
2023-03-22T02:15:49.051Z,3.25
2023-03-22T02:18:52.652Z,3.28
2023-03-22T02:21:22.564Z,3.85
2023-03-22T02:24:01.417Z,4.20
2023-03-22T02:26:49.638Z,3.40
2023-03-22T02:29:30.095Z,3.95
2023-03-22T02:32:09.840Z,4.00
2023-03-22T02:35:09.459Z,3.75
2023-03-22T02:37:45.073Z,4.43
2023-03-22T02:40:46.581Z,4.82
2023-03-22T02:43:41.641Z,4.80
2023-03-22T02:46:26.244Z,5.10
2023-03-22T02:49:07.914Z,5.45
2023-03-22T02:51:42.573Z,5.63
2023-03-22T02:54:58.367Z,6.40
2023-03-22T02:57:42.054Z,6.65
2023-03-22T03:00:13.191Z,6.72
2023-03-22T03:02:55.640Z,6.95
2023-03-22T03:05:25.270Z,7.55
2023-03-22T03:07:58.500Z,8.00
2023-03-22T03:10:27.186Z,8.48
2023-03-22T03:12:54.031Z,8.48
2023-03-22T03:15:23.724Z,9.10
2023-03-22T03:18:13.826Z,8.40
2023-03-22T03:20:56.510Z,8.50
2023-03-22T03:23:49.507Z,9.10
2023-03-22T03:26:54.475Z,9.20
2023-03-22T03:29:45.692Z,8.85
2023-03-22T03:32:19.420Z,8.20
2023-03-22T03:34:49.784Z,8.65
2023-03-22T03:40:04.950Z,8.73
2023-03-22T03:42:32.398Z,8.82
2023-03-22T03:45:00.975Z,9.27
2023-03-22T03:47:29.030Z,8.80
2023-03-22T03:49:56.003Z,8.50
2023-03-22T03:52:24.574Z,8.55
2023-03-22T03:54:52.078Z,8.20
2023-03-22T03:57:18.913Z,8.93
2023-03-22T03:59:46.856Z,9.23
2023-03-22T04:02:13.644Z,9.20
2023-03-22T04:04:40.498Z,9.27
2023-03-22T04:07:07.324Z,9.20
2023-03-22T04:09:38.500Z,8.43
2023-03-22T04:12:05.515Z,7.70
2023-03-22T04:14:32.306Z,8.20
2023-03-22T04:16:59.203Z,8.02
2023-03-22T04:19:26.732Z,8.60
2023-03-22T04:21:53.788Z,8.55
2023-03-22T04:24:22.012Z,8.15
2023-03-22T04:26:48.886Z,8.70
2023-03-22T04:29:16.139Z,8.40
2023-03-22T04:31:43.073Z,7.75
2023-03-22T04:34:09.948Z,7.47
2023-03-22T04:36:39.638Z,8.25
2023-03-22T04:39:10.768Z,7.97
2023-03-22T04:41:38.079Z,7.75
2023-03-22T04:44:06.670Z,7.15
2023-03-22T04:46:36.216Z,7.80
2023-03-22T04:49:03.824Z,7.15
2023-03-22T04:51:32.065Z,7.32
2023-03-22T04:53:59.189Z,8.20
2023-03-22T04:56:27.041Z,8.13
2023-03-22T04:58:53.927Z,7.05
2023-03-22T05:01:20.765Z,7.07
2023-03-22T05:03:47.955Z,7.93
2023-03-22T05:06:15.819Z,6.72
2023-03-22T05:08:42.850Z,7.47
2023-03-22T05:11:14.931Z,6.85
2023-03-22T05:13:41.804Z,6.28
2023-03-22T05:16:09.533Z,6.75
2023-03-22T05:18:42.339Z,6.47
2023-03-22T05:21:15.488Z,6.93
2023-03-22T05:23:43.418Z,6.90
2023-03-22T05:26:11.368Z,5.97
2023-03-22T05:28:38.589Z,5.70
2023-03-22T05:31:05.816Z,5.90
2023-03-22T05:33:34.766Z,6.55
2023-03-22T05:36:01.961Z,6.30
2023-03-22T05:38:29.048Z,5.78
2023-03-22T05:40:56.105Z,6.45
2023-03-22T05:43:23.008Z,6.22
2023-03-22T05:45:49.960Z,6.50
2023-03-22T05:48:17.423Z,6.18
2023-03-22T05:50:44.418Z,5.63
2023-03-22T05:53:11.947Z,6.25
2023-03-22T05:55:40.012Z,5.60
2023-03-22T05:58:07.693Z,5.72
2023-03-22T06:00:35.804Z,6.57
2023-03-22T06:03:03.886Z,5.40
2023-03-22T06:05:32.307Z,6.05
2023-03-22T06:07:59.967Z,5.97
2023-03-22T06:10:28.163Z,5.13
2023-03-22T06:12:55.485Z,5.13
2023-03-22T06:15:22.550Z,5.65
2023-03-22T06:17:49.475Z,5.30
2023-03-22T06:20:16.661Z,5.97
2023-03-22T06:22:43.724Z,5.43
2023-03-22T06:25:11.459Z,5.07
2023-03-22T06:27:38.325Z,5.15
2023-03-22T06:30:06.058Z,4.95
2023-03-22T06:32:32.962Z,4.85
2023-03-22T06:34:59.781Z,4.93
2023-03-22T06:37:26.780Z,5.15
2023-03-22T06:39:53.623Z,4.40
2023-03-22T06:42:20.729Z,4.70
2023-03-22T06:44:47.568Z,4.38
2023-03-22T06:47:14.458Z,4.22
2023-03-22T06:49:41.408Z,4.53
2023-03-22T06:52:08.454Z,4.63
2023-03-22T06:54:35.416Z,4.25
2023-03-22T06:57:02.351Z,4.15
2023-03-22T06:59:29.295Z,4.18
2023-03-22T07:01:56.340Z,3.75
2023-03-22T07:04:24.207Z,3.80
2023-03-22T07:06:51.375Z,4.07
2023-03-22T07:09:18.711Z,3.65
2023-03-22T07:11:45.571Z,4.13
2023-03-22T07:14:12.703Z,3.45
2023-03-22T07:16:39.550Z,3.22
2023-03-22T07:19:06.990Z,3.00
2023-03-22T07:21:34.415Z,4.15
2023-03-22T07:24:01.324Z,3.13
2023-03-22T07:26:30.549Z,3.20
2023-03-22T07:28:57.803Z,3.58
2023-03-22T07:31:24.658Z,3.60
2023-03-22T07:33:52.285Z,2.78
2023-03-22T07:36:23.713Z,3.15
2023-03-22T07:38:51.535Z,3.10
2023-03-22T07:41:18.669Z,3.28
2023-03-22T07:43:55.272Z,2.97
2023-03-22T07:46:25.180Z,3.55
2023-03-22T07:48:52.018Z,2.88
2023-03-22T07:51:19.239Z,2.90
2023-03-22T07:53:46.026Z,3.35
2023-03-22T07:56:12.763Z,3.10
2023-03-22T07:58:39.788Z,2.75
2023-03-22T08:01:10.831Z,3.03
2023-03-22T08:03:37.852Z,3.20
2023-03-22T08:06:07.660Z,3.00
2023-03-22T08:08:36.891Z,3.13
2023-03-22T08:11:05.616Z,2.80
2023-03-22T08:13:32.474Z,2.88
2023-03-22T08:15:59.336Z,3.00
2023-03-22T08:18:26.155Z,3.20
2023-03-22T08:20:58.134Z,2.88
2023-03-22T08:23:40.548Z,2.97
2023-03-22T08:26:08.536Z,3.90
2023-03-22T08:28:35.644Z,2.97
2023-03-22T08:31:02.452Z,3.22
2023-03-22T08:33:29.286Z,3.67
2023-03-22T08:36:13.923Z,3.20
2023-03-22T08:38:42.523Z,4.40
2023-03-22T08:41:09.572Z,3.17
2023-03-22T08:43:36.446Z,3.13
2023-03-22T08:46:04.060Z,3.90
2023-03-22T08:48:31.841Z,3.15
2023-03-22T08:50:58.917Z,3.60
2023-03-22T08:53:25.825Z,3.28
2023-03-22T08:55:52.578Z,3.60
2023-03-22T08:58:22.536Z,3.13
2023-03-22T09:00:50.049Z,2.97
2023-03-22T09:03:17.367Z,3.20
2023-03-22T09:05:44.307Z,3.45
2023-03-22T09:08:18.631Z,3.25
2023-03-22T09:10:52.036Z,3.13
2023-03-22T09:13:19.974Z,3.50
2023-03-22T09:15:47.686Z,3.10
2023-03-22T09:18:16.179Z,3.30
2023-03-22T09:20:44.689Z,3.03
2023-03-22T09:23:12.328Z,3.22
2023-03-22T09:25:39.418Z,2.80
2023-03-22T09:28:06.291Z,3.25
2023-03-22T09:30:33.086Z,3.17
2023-03-22T09:32:59.888Z,3.38
2023-03-22T09:35:26.869Z,3.00
2023-03-22T09:37:54.554Z,2.60
2023-03-22T09:40:25.113Z,2.90
2023-03-22T09:42:55.693Z,2.90
2023-03-22T09:45:32.869Z,3.00
2023-03-22T09:48:00.542Z,3.33
2023-03-22T09:50:32.556Z,3.65
2023-03-22T09:53:00.500Z,2.80
2023-03-22T09:56:16.848Z,3.10
2023-03-22T09:59:24.055Z,3.85
2023-03-22T10:02:04.888Z,3.25
2023-03-22T10:04:57.964Z,3.35
2023-03-22T10:07:40.776Z,4.30
2023-03-22T10:10:28.130Z,3.47
2023-03-22T10:12:58.172Z,4.00
2023-03-22T10:15:33.176Z,4.13
2023-03-22T10:18:02.393Z,3.92
2023-03-22T10:21:15.242Z,5.75
2023-03-22T10:23:47.700Z,3.25
2023-03-22T10:26:24.548Z,3.25
2023-03-22T10:29:03.989Z,3.10
2023-03-22T10:31:32.213Z,2.70
2023-03-22T10:34:13.359Z,3.47
2023-03-22T10:36:41.516Z,3.10
2023-03-22T10:39:26.379Z,3.58
2023-03-22T10:41:57.893Z,3.03
2023-03-22T10:44:27.592Z,3.83
2023-03-22T10:46:55.822Z,3.60
2023-03-22T10:49:36.659Z,2.88
2023-03-22T10:52:16.829Z,3.42
2023-03-22T10:54:44.060Z,2.90
2023-03-22T10:57:10.950Z,3.30
2023-03-22T10:59:56.650Z,3.53
2023-03-22T11:02:27.694Z,3.08
2023-03-22T11:05:03.960Z,2.95
2023-03-22T11:07:37.642Z,3.00
2023-03-22T11:10:19.162Z,2.90
2023-03-22T11:12:50.811Z,3.00
2023-03-22T11:15:23.109Z,3.30
2023-03-22T11:17:49.973Z,3.15
2023-03-22T11:20:19.247Z,2.92
2023-03-22T11:22:48.215Z,2.78
2023-03-22T11:25:21.179Z,2.90
2023-03-22T11:28:16.354Z,4.07
2023-03-22T11:31:03.245Z,3.35
2023-03-22T11:33:30.819Z,3.30
2023-03-22T11:36:00.384Z,2.75
2023-03-22T11:38:29.711Z,2.75
2023-03-22T11:41:01.424Z,2.80
2023-03-22T11:43:48.584Z,2.92
2023-03-22T11:46:19.366Z,2.80
2023-03-22T11:48:48.550Z,2.70
2023-03-22T11:51:20.633Z,2.63
2023-03-22T11:53:48.709Z,2.83
2023-03-22T11:56:25.957Z,3.40
2023-03-22T11:59:13.871Z,2.80
2023-03-22T12:01:51.314Z,3.75
2023-03-22T12:04:24.397Z,2.92
2023-03-22T12:06:54.610Z,2.55
2023-03-22T12:09:59.118Z,2.97
2023-03-22T12:12:31.825Z,2.75
2023-03-22T12:15:13.818Z,2.83
2023-03-22T12:18:01.742Z,2.60
2023-03-22T12:20:55.185Z,2.63
2023-03-22T12:23:25.476Z,2.55
2023-03-22T12:26:07.440Z,2.70
2023-03-22T12:28:49.183Z,2.88
2023-03-22T12:31:27.784Z,2.88
2023-03-22T12:33:57.940Z,3.15
2023-03-22T12:36:35.311Z,2.70
2023-03-22T12:39:06.966Z,2.88
2023-03-22T12:41:40.540Z,2.83
2023-03-22T12:44:17.182Z,2.70
2023-03-22T12:47:05.419Z,2.78
2023-03-22T12:49:46.915Z,2.63
2023-03-22T12:52:44.737Z,2.90
2023-03-22T12:55:35.730Z,2.72
2023-03-22T12:58:06.113Z,2.97
2023-03-22T13:03:16.336Z,3.10
2023-03-22T13:05:45.792Z,2.85
2023-03-22T13:08:13.463Z,3.35
2023-03-22T13:10:48.978Z,2.85
2023-03-22T13:13:21.051Z,3.05
2023-03-22T13:16:00.239Z,2.72
2023-03-22T13:18:36.431Z,3.00
2023-03-22T13:21:21.562Z,2.80
2023-03-22T13:24:07.516Z,3.38
2023-03-22T13:26:47.104Z,3.60
2023-03-22T13:29:26.907Z,3.07
2023-03-22T13:32:03.224Z,3.15
2023-03-22T13:34:46.506Z,3.30
2023-03-22T13:37:50.439Z,3.55
2023-03-22T13:40:54.768Z,3.50
2023-03-22T13:43:39.554Z,3.70
2023-03-22T13:46:06.702Z,3.78
2023-03-22T13:48:49.438Z,3.70
2023-03-22T13:51:19.407Z,3.70
2023-03-22T13:54:16.584Z,3.72
2023-03-22T13:57:03.701Z,4.30
2023-03-22T14:00:03.262Z,3.95
2023-03-22T14:02:37.786Z,4.03
2023-03-22T14:05:15.077Z,4.68
2023-03-22T14:07:54.068Z,4.63
2023-03-22T14:10:58.529Z,4.82
2023-03-22T14:13:45.707Z,5.05
2023-03-22T14:16:36.661Z,5.00
2023-03-22T14:19:06.423Z,4.72
2023-03-22T14:21:37.726Z,5.90
